createdAt,value
2017-01-26T00:00:29.953Z,2
2017-01-26T00:01:40.657Z,1.89
2017-01-26T00:02:51.379Z,1.93
2017-01-26T00:04:02.103Z,1.89
2017-01-26T00:05:12.831Z,1.82
2017-01-26T00:06:23.542Z,1.82
2017-01-26T00:07:34.540Z,1.89
2017-01-26T00:08:45.246Z,1.79
2017-01-26T00:09:55.989Z,1.84
2017-01-26T00:11:06.705Z,1.82
2017-01-26T00:12:17.424Z,1.84
2017-01-26T00:13:28.171Z,1.88
2017-01-26T00:14:38.918Z,1.88
2017-01-26T00:15:49.635Z,1.79
2017-01-26T00:17:00.341Z,1.85
2017-01-26T00:18:11.061Z,1.85
2017-01-26T00:19:21.760Z,1.82
2017-01-26T00:20:32.493Z,1.81
2017-01-26T00:21:43.201Z,1.88
2017-01-26T00:22:53.915Z,1.85
2017-01-26T00:24:04.643Z,1.79
2017-01-26T00:25:15.364Z,1.85
2017-01-26T00:26:26.100Z,1.79
2017-01-26T00:27:36.838Z,1.67
2017-01-26T00:28:47.549Z,1.75
2017-01-26T00:29:58.273Z,1.75
2017-01-26T00:31:09.007Z,1.7
2017-01-26T00:32:19.714Z,1.64
2017-01-26T00:33:30.436Z,1.66
2017-01-26T00:34:41.180Z,1.68
2017-01-26T00:35:51.898Z,1.61
2017-01-26T00:37:02.862Z,1.68
2017-01-26T00:38:13.566Z,1.7
2017-01-26T00:39:24.340Z,1.64
2017-01-26T00:40:35.076Z,1.64
2017-01-26T00:41:45.850Z,1.64
2017-01-26T00:42:56.576Z,1.61
2017-01-26T00:44:07.300Z,1.68
2017-01-26T00:45:18.019Z,1.66
2017-01-26T00:46:28.765Z,1.6
2017-01-26T00:47:39.479Z,1.6
2017-01-26T00:48:50.473Z,1.61
2017-01-26T00:50:01.219Z,1.6
2017-01-26T00:51:11.968Z,1.68
2017-01-26T00:52:22.685Z,1.67
2017-01-26T00:53:33.418Z,1.67
2017-01-26T00:54:44.138Z,1.64
2017-01-26T00:55:54.903Z,1.67
2017-01-26T00:57:05.645Z,1.64
2017-01-26T00:58:16.749Z,1.58
2017-01-26T00:59:27.462Z,1.64
2017-01-26T01:00:38.186Z,1.66
2017-01-26T01:01:48.941Z,1.63
2017-01-26T01:02:59.684Z,1.6
2017-01-26T01:04:10.421Z,1.68
2017-01-26T01:05:21.549Z,1.57
2017-01-26T01:06:32.253Z,1.68
2017-01-26T01:07:42.983Z,1.7
2017-01-26T01:08:53.704Z,1.6
2017-01-26T01:10:04.434Z,1.66
2017-01-26T01:11:15.157Z,1.63
2017-01-26T01:12:25.853Z,1.64
2017-01-26T01:13:36.573Z,1.6
2017-01-26T01:14:47.293Z,1.61
2017-01-26T01:15:58.014Z,1.75
2017-01-26T01:17:08.727Z,1.63
2017-01-26T01:18:19.451Z,1.6
2017-01-26T01:19:30.173Z,1.63
2017-01-26T01:20:40.898Z,1.6
2017-01-26T01:21:51.621Z,1.53
2017-01-26T01:23:02.340Z,1.61
2017-01-26T01:24:13.315Z,1.58
2017-01-26T01:25:24.031Z,1.64
2017-01-26T01:26:34.774Z,1.53
2017-01-26T01:27:45.503Z,1.6
2017-01-26T01:28:56.241Z,1.58
2017-01-26T01:30:06.944Z,1.56
2017-01-26T01:31:17.666Z,1.56
2017-01-26T01:32:28.400Z,1.67
2017-01-26T01:33:39.125Z,1.61
2017-01-26T01:34:49.852Z,1.63
2017-01-26T01:36:00.588Z,1.58
2017-01-26T01:37:11.308Z,1.58
2017-01-26T01:38:22.041Z,1.58
2017-01-26T01:39:32.778Z,1.67
2017-01-26T01:40:43.522Z,1.66
2017-01-26T01:41:54.252Z,1.58
2017-01-26T01:43:05.354Z,1.56
2017-01-26T01:44:16.073Z,1.6
2017-01-26T01:45:26.781Z,1.6
2017-01-26T01:46:37.505Z,1.7
2017-01-26T01:47:48.484Z,1.64
2017-01-26T01:48:59.243Z,1.66
2017-01-26T01:50:09.972Z,1.63
2017-01-26T01:51:20.694Z,1.66
2017-01-26T01:52:31.442Z,1.66
2017-01-26T01:53:42.154Z,1.64
2017-01-26T01:54:52.874Z,1.67
2017-01-26T01:56:03.606Z,1.64
2017-01-26T01:57:14.319Z,1.58
2017-01-26T01:58:25.038Z,1.66
2017-01-26T01:59:35.749Z,1.71
2017-01-26T02:00:46.461Z,1.61
2017-01-26T02:01:57.183Z,1.58
2017-01-26T02:03:07.934Z,1.5
2017-01-26T02:04:18.642Z,1.5
2017-01-26T02:05:29.642Z,1.58
2017-01-26T02:06:40.395Z,1.53
2017-01-26T02:07:51.118Z,1.58
2017-01-26T02:09:01.884Z,1.49
2017-01-26T02:10:12.997Z,1.53
2017-01-26T02:11:23.779Z,1.64
2017-01-26T02:12:34.496Z,1.52
2017-01-26T02:13:45.210Z,1.48
2017-01-26T02:14:55.932Z,1.46
2017-01-26T02:16:06.709Z,1.63
2017-01-26T02:17:17.399Z,1.58
2017-01-26T02:18:28.106Z,1.52
2017-01-26T02:19:38.800Z,1.5
2017-01-26T02:20:49.522Z,1.46
2017-01-26T02:22:00.257Z,1.46
2017-01-26T02:23:11.215Z,1.43
2017-01-26T02:24:21.932Z,1.49
2017-01-26T02:25:32.656Z,1.39
2017-01-26T02:26:43.348Z,1.49
2017-01-26T02:27:54.050Z,1.49
2017-01-26T02:29:04.770Z,1.43
2017-01-26T02:30:15.511Z,1.4
2017-01-26T02:31:26.238Z,1.45
2017-01-26T02:32:36.982Z,1.45
2017-01-26T02:33:47.699Z,1.36
2017-01-26T02:34:58.414Z,1.4
2017-01-26T02:36:09.143Z,1.4
2017-01-26T02:37:19.880Z,1.48
2017-01-26T02:38:30.610Z,1.46
2017-01-26T02:39:41.312Z,1.43
2017-01-26T02:40:52.043Z,1.36
2017-01-26T02:42:02.776Z,1.46
2017-01-26T02:43:13.486Z,1.45
2017-01-26T02:44:24.206Z,1.32
2017-01-26T02:45:34.938Z,1.34
2017-01-26T02:46:45.923Z,1.36
2017-01-26T02:47:56.673Z,1.39
2017-01-26T02:49:07.378Z,1.38
2017-01-26T02:50:18.097Z,1.48
2017-01-26T02:51:28.816Z,1.4
2017-01-26T02:52:39.554Z,1.36
2017-01-26T02:53:50.283Z,1.5
2017-01-26T02:55:01.021Z,1.45
2017-01-26T02:56:11.796Z,1.36
2017-01-26T02:57:22.512Z,1.39
2017-01-26T02:58:33.272Z,1.4
2017-01-26T02:59:44.007Z,1.45
2017-01-26T03:00:54.762Z,1.36
2017-01-26T03:02:05.499Z,1.42
2017-01-26T03:03:16.256Z,1.42
2017-01-26T03:04:26.973Z,1.36
2017-01-26T03:05:37.712Z,1.36
2017-01-26T03:06:48.429Z,1.39
2017-01-26T03:07:59.163Z,1.32
2017-01-26T03:09:09.908Z,1.3
2017-01-26T03:10:20.648Z,1.42
2017-01-26T03:11:31.370Z,1.43
2017-01-26T03:12:42.099Z,1.3
2017-01-26T03:13:52.834Z,1.31
2017-01-26T03:15:03.551Z,1.42
2017-01-26T03:16:14.280Z,1.27
2017-01-26T03:17:25.027Z,1.4
2017-01-26T03:18:35.778Z,1.4
2017-01-26T03:19:46.522Z,1.34
2017-01-26T03:20:57.256Z,1.3
2017-01-26T03:22:08.228Z,1.36
2017-01-26T03:23:18.961Z,1.38
2017-01-26T03:24:29.677Z,1.38
2017-01-26T03:25:40.390Z,1.38
2017-01-26T03:26:51.103Z,1.38
2017-01-26T03:28:01.818Z,1.25
2017-01-26T03:29:12.569Z,1.3
2017-01-26T03:30:23.285Z,1.27
2017-01-26T03:31:34.378Z,1.31
2017-01-26T03:32:45.078Z,1.32
2017-01-26T03:33:55.798Z,1.28
2017-01-26T03:35:06.559Z,1.28
2017-01-26T03:36:17.681Z,1.27
2017-01-26T03:37:28.377Z,1.27
2017-01-26T03:38:39.120Z,1.25
2017-01-26T03:39:49.823Z,1.31
2017-01-26T03:41:00.537Z,1.24
2017-01-26T03:42:11.273Z,1.28
2017-01-26T03:43:21.983Z,1.27
2017-01-26T03:44:32.718Z,1.27
2017-01-26T03:45:43.695Z,1.18
2017-01-26T03:46:54.442Z,1.25
2017-01-26T03:48:05.149Z,1.28
2017-01-26T03:49:15.887Z,1.22
2017-01-26T03:50:26.613Z,1.28
2017-01-26T03:51:37.350Z,1.24
2017-01-26T03:52:48.082Z,1.21
2017-01-26T03:53:58.771Z,1.27
2017-01-26T03:55:09.501Z,1.14
2017-01-26T03:56:20.234Z,1.18
2017-01-26T03:57:30.980Z,1.16
2017-01-26T03:58:41.704Z,1.25
2017-01-26T03:59:52.451Z,1.18
2017-01-26T04:01:03.557Z,1.2
2017-01-26T04:02:14.343Z,1.21
2017-01-26T04:03:25.060Z,1.22
2017-01-26T04:04:35.790Z,1.2
2017-01-26T04:05:46.502Z,1.1
2017-01-26T04:06:57.215Z,1.22
2017-01-26T04:08:07.932Z,1.07
2017-01-26T04:09:18.918Z,1.18
2017-01-26T04:10:29.644Z,1.13
2017-01-26T04:11:40.366Z,1.21
2017-01-26T04:12:51.064Z,1.24
2017-01-26T04:14:01.803Z,1.21
2017-01-26T04:15:12.495Z,1.21
2017-01-26T04:16:23.224Z,1.14
2017-01-26T04:17:33.940Z,1.21
2017-01-26T04:18:44.670Z,1.25
2017-01-26T04:19:55.387Z,1.13
2017-01-26T04:21:06.103Z,1.25
2017-01-26T04:22:16.820Z,1.22
2017-01-26T04:23:27.568Z,1.13
2017-01-26T04:24:38.296Z,1.16
2017-01-26T04:25:49.021Z,1.02
2017-01-26T04:27:00.021Z,1.16
2017-01-26T04:28:10.755Z,1.14
2017-01-26T04:29:21.501Z,1.14
2017-01-26T04:30:32.218Z,1.14
2017-01-26T04:31:42.954Z,1.16
2017-01-26T04:32:53.714Z,1.07
2017-01-26T04:34:04.442Z,1.07
2017-01-26T04:35:15.152Z,0.99
2017-01-26T04:36:25.903Z,1.13
2017-01-26T04:37:36.618Z,1.13
2017-01-26T04:38:47.314Z,1.04
2017-01-26T04:39:58.039Z,1.06
2017-01-26T04:41:08.769Z,1.07
2017-01-26T04:42:19.461Z,1.09
2017-01-26T04:43:30.163Z,1
2017-01-26T04:44:40.903Z,1.09
2017-01-26T04:45:51.641Z,1.04
2017-01-26T04:47:02.345Z,1.06
2017-01-26T04:48:13.059Z,1.02
2017-01-26T04:49:23.791Z,0.91
2017-01-26T04:50:34.526Z,1
2017-01-26T04:51:45.250Z,0.84
2017-01-26T04:52:55.982Z,0.81
2017-01-26T04:54:07.092Z,0.85
2017-01-26T04:55:17.839Z,0.84
2017-01-26T04:56:28.866Z,0.74
2017-01-26T04:57:39.579Z,0.78
2017-01-26T04:58:50.307Z,0.74
2017-01-26T05:00:01.029Z,0.76
2017-01-26T05:01:11.749Z,0.77
2017-01-26T05:02:22.489Z,0.78
2017-01-26T05:03:33.189Z,0.76
2017-01-26T05:04:43.906Z,0.7
2017-01-26T05:05:54.626Z,0.73
2017-01-26T05:07:05.368Z,0.58
2017-01-26T05:08:16.101Z,0.61
2017-01-26T05:09:26.815Z,0.63
2017-01-26T05:10:37.532Z,0.64
2017-01-26T05:11:48.232Z,0.59
2017-01-26T05:12:58.975Z,0.56
2017-01-26T05:14:09.683Z,0.49
2017-01-26T05:15:20.417Z,0.49
2017-01-26T05:16:31.145Z,0.49
2017-01-26T05:17:41.862Z,0.39
2017-01-26T05:18:52.580Z,0.37
2017-01-26T05:20:03.290Z,0.4
2017-01-26T05:21:14.007Z,0.37
2017-01-26T05:22:24.722Z,0.42
2017-01-26T05:23:35.451Z,0.37
2017-01-26T05:24:46.186Z,0.39
2017-01-26T05:25:56.941Z,0.39
2017-01-26T05:27:07.637Z,0.4
2017-01-26T05:28:18.346Z,0.33
2017-01-26T05:29:29.097Z,0.34
2017-01-26T05:30:39.818Z,0.24
2017-01-26T05:31:51.172Z,0.29
2017-01-26T05:33:01.894Z,0.36
2017-01-26T05:34:12.608Z,0.24
2017-01-26T05:35:23.328Z,0.27
2017-01-26T05:36:34.054Z,0.29
2017-01-26T05:37:44.992Z,0.26
2017-01-26T05:38:55.695Z,0.3
2017-01-26T05:40:06.412Z,0.34
2017-01-26T05:41:17.141Z,0.3
2017-01-26T05:42:27.862Z,0.33
2017-01-26T05:43:38.574Z,0.29
2017-01-26T05:44:49.307Z,0.34
2017-01-26T05:46:00.041Z,0.27
2017-01-26T05:47:10.817Z,0.3
2017-01-26T05:48:21.517Z,0.33
2017-01-26T05:49:32.227Z,0.31
2017-01-26T05:50:42.972Z,0.36
2017-01-26T05:51:53.686Z,0.31
2017-01-26T05:53:04.390Z,0.33
2017-01-26T05:54:15.114Z,0.27
2017-01-26T05:55:25.863Z,0.36
2017-01-26T05:56:36.581Z,0.29
2017-01-26T05:57:47.286Z,0.29
2017-01-26T05:58:58.062Z,0.31
2017-01-26T06:00:08.778Z,0.37
2017-01-26T06:01:19.494Z,0.34
2017-01-26T06:02:30.236Z,0.34
2017-01-26T06:03:40.978Z,0.36
2017-01-26T06:04:51.691Z,0.33
2017-01-26T06:06:02.435Z,0.26
2017-01-26T06:07:13.417Z,0.36
2017-01-26T06:08:24.166Z,0.4
2017-01-26T06:09:34.908Z,0.4
2017-01-26T06:10:45.638Z,0.37
2017-01-26T06:11:56.377Z,0.45
2017-01-26T06:13:07.104Z,0.4
2017-01-26T06:14:17.826Z,0.49
2017-01-26T06:15:28.527Z,0.48
2017-01-26T06:16:39.264Z,0.51
2017-01-26T06:17:49.995Z,0.51
2017-01-26T06:19:00.717Z,0.49
2017-01-26T06:20:11.449Z,0.58
2017-01-26T06:21:22.180Z,0.63
2017-01-26T06:22:32.901Z,0.58
2017-01-26T06:23:43.621Z,0.55
2017-01-26T06:24:54.374Z,0.56
2017-01-26T06:26:05.104Z,0.61
2017-01-26T06:27:15.832Z,0.59
2017-01-26T06:28:26.552Z,0.67
2017-01-26T06:29:37.275Z,0.59
2017-01-26T06:30:48.221Z,0.55
2017-01-26T06:31:58.934Z,0.68
2017-01-26T06:33:09.680Z,0.63
2017-01-26T06:34:20.426Z,0.73
2017-01-26T06:35:31.147Z,0.73
2017-01-26T06:36:41.871Z,0.77
2017-01-26T06:37:52.592Z,0.76
2017-01-26T06:39:03.310Z,0.73
2017-01-26T06:40:14.035Z,0.77
2017-01-26T06:41:24.763Z,0.74
2017-01-26T06:42:35.481Z,0.73
2017-01-26T06:43:46.568Z,0.77
2017-01-26T06:44:57.292Z,0.68
2017-01-26T06:46:08.017Z,0.71
2017-01-26T06:47:18.735Z,0.71
2017-01-26T06:48:29.703Z,0.7
2017-01-26T06:49:40.433Z,0.71
2017-01-26T06:50:51.152Z,0.74
2017-01-26T06:52:01.872Z,0.77
2017-01-26T06:53:12.615Z,0.64
2017-01-26T06:54:23.324Z,0.67
2017-01-26T06:55:34.030Z,0.73
2017-01-26T06:56:44.734Z,0.7
2017-01-26T06:57:55.461Z,0.67
2017-01-26T06:59:06.579Z,0.58
2017-01-26T07:00:17.316Z,0.7
2017-01-26T07:01:28.070Z,0.58
2017-01-26T07:02:38.766Z,0.66
2017-01-26T07:03:49.462Z,0.58
2017-01-26T07:05:00.155Z,0.73
2017-01-26T07:06:10.866Z,0.59
2017-01-26T07:07:21.565Z,0.59
2017-01-26T07:08:32.319Z,0.67
2017-01-26T07:09:43.034Z,0.7
2017-01-26T07:10:53.738Z,0.67
2017-01-26T07:12:04.451Z,0.7
2017-01-26T07:13:15.205Z,0.68
2017-01-26T07:14:25.916Z,0.73
2017-01-26T07:15:36.648Z,0.68
2017-01-26T07:16:47.390Z,0.73
2017-01-26T07:17:58.088Z,0.71
2017-01-26T07:19:09.174Z,0.73
2017-01-26T07:20:19.895Z,0.76
2017-01-26T07:21:30.631Z,0.73
2017-01-26T07:22:41.371Z,0.76
2017-01-26T07:23:52.084Z,0.76
2017-01-26T07:25:02.840Z,0.74
2017-01-26T07:26:13.559Z,0.74
2017-01-26T07:27:24.275Z,0.74
2017-01-26T07:28:35.021Z,0.74
2017-01-26T07:29:46.149Z,0.7
2017-01-26T07:30:56.892Z,0.7
2017-01-26T07:32:07.607Z,0.63
2017-01-26T07:33:18.314Z,0.67
2017-01-26T07:34:29.032Z,0.55
2017-01-26T07:35:39.729Z,0.61
2017-01-26T07:36:50.443Z,0.58
2017-01-26T07:38:01.164Z,0.61
2017-01-26T07:39:11.888Z,0.56
2017-01-26T07:40:22.579Z,0.49
2017-01-26T07:41:33.302Z,0.51
2017-01-26T07:42:44.055Z,0.52
2017-01-26T07:43:54.803Z,0.51
2017-01-26T07:45:05.540Z,0.49
2017-01-26T07:46:16.665Z,0.45
2017-01-26T07:47:27.612Z,0.47
2017-01-26T07:48:38.324Z,0.49
2017-01-26T07:49:49.029Z,0.48
2017-01-26T07:50:59.735Z,0.45
2017-01-26T07:52:10.438Z,0.48
2017-01-26T07:53:21.170Z,0.47
2017-01-26T07:54:31.908Z,0.44
2017-01-26T07:55:42.626Z,0.4
2017-01-26T07:56:53.381Z,0.42
2017-01-26T07:58:04.096Z,0.44
2017-01-26T07:59:15.067Z,0.42
2017-01-26T08:00:25.786Z,0.44
2017-01-26T08:01:36.516Z,0.48
2017-01-26T08:02:47.230Z,0.45
2017-01-26T08:03:57.978Z,0.48
2017-01-26T08:05:08.697Z,0.51
2017-01-26T08:06:19.419Z,0.51
2017-01-26T08:07:30.136Z,0.55
2017-01-26T08:08:40.842Z,0.51
2017-01-26T08:09:51.578Z,0.47
2017-01-26T08:11:02.287Z,0.51
2017-01-26T08:12:13.020Z,0.61
2017-01-26T08:13:23.758Z,0.61
2017-01-26T08:14:34.490Z,0.58
2017-01-26T08:15:45.209Z,0.58
2017-01-26T08:16:55.940Z,0.58
2017-01-26T08:18:06.657Z,0.59
2017-01-26T08:19:17.372Z,0.67
2017-01-26T08:20:28.103Z,0.64
2017-01-26T08:21:38.816Z,0.71
2017-01-26T08:22:49.537Z,0.73
2017-01-26T08:24:00.267Z,0.68
2017-01-26T08:25:10.979Z,0.74
2017-01-26T08:26:21.683Z,0.7
2017-01-26T08:27:32.416Z,0.74
2017-01-26T08:28:43.127Z,0.84
2017-01-26T08:29:53.861Z,0.85
2017-01-26T08:31:04.606Z,0.86
2017-01-26T08:32:15.330Z,0.91
2017-01-26T08:33:26.073Z,0.92
2017-01-26T08:34:36.818Z,1.04
2017-01-26T08:35:47.553Z,1.02
2017-01-26T08:36:58.286Z,1.07
2017-01-26T08:38:09.042Z,1.02
2017-01-26T08:39:19.768Z,1.21
2017-01-26T08:40:30.512Z,1.22
2017-01-26T08:41:41.234Z,1.24
2017-01-26T08:42:51.924Z,1.27
2017-01-26T08:44:02.652Z,1.24
2017-01-26T08:45:13.395Z,1.28
2017-01-26T08:46:24.116Z,1.34
2017-01-26T08:47:34.850Z,1.31
2017-01-26T08:48:45.584Z,1.46
2017-01-26T08:49:56.324Z,1.48
2017-01-26T08:51:07.050Z,1.39
2017-01-26T08:52:17.794Z,1.57
2017-01-26T08:53:28.529Z,1.52
2017-01-26T08:54:39.259Z,1.5
2017-01-26T08:55:49.959Z,1.61
2017-01-26T08:57:01.095Z,1.66
2017-01-26T08:58:11.864Z,1.63
2017-01-26T08:59:22.600Z,1.7
2017-01-26T09:00:33.336Z,1.64
2017-01-26T09:01:44.030Z,1.74
2017-01-26T09:02:54.748Z,1.71
2017-01-26T09:04:05.472Z,1.75
2017-01-26T09:05:16.190Z,1.76
2017-01-26T09:06:26.894Z,1.81
2017-01-26T09:07:37.610Z,1.95
2017-01-26T09:08:48.314Z,1.97
2017-01-26T09:09:59.055Z,1.92
2017-01-26T09:11:10.169Z,1.97
2017-01-26T09:12:20.893Z,1.98
2017-01-26T09:13:31.625Z,2.03
2017-01-26T09:14:42.346Z,2.07
2017-01-26T09:15:53.063Z,2
2017-01-26T09:17:03.781Z,2.04
2017-01-26T09:18:14.484Z,1.95
2017-01-26T09:19:25.220Z,2.03
2017-01-26T09:20:35.938Z,1.92
2017-01-26T09:21:46.695Z,2.03
2017-01-26T09:22:57.416Z,2.04
2017-01-26T09:24:08.128Z,1.98
2017-01-26T09:25:18.853Z,1.97
2017-01-26T09:26:29.603Z,1.97
2017-01-26T09:27:40.327Z,1.95
2017-01-26T09:28:51.062Z,1.95
2017-01-26T09:30:01.788Z,2.01
2017-01-26T09:31:12.485Z,1.95
2017-01-26T09:32:23.206Z,1.98
2017-01-26T09:33:33.951Z,1.98
2017-01-26T09:34:44.653Z,1.92
2017-01-26T09:35:55.400Z,1.82
2017-01-26T09:37:06.115Z,1.93
2017-01-26T09:38:16.852Z,1.95
2017-01-26T09:39:27.823Z,1.84
2017-01-26T09:40:38.545Z,1.85
2017-01-26T09:41:49.277Z,1.85
2017-01-26T09:43:00.039Z,1.88
2017-01-26T09:44:10.789Z,1.82
2017-01-26T09:45:21.511Z,1.78
2017-01-26T09:46:32.286Z,1.85
2017-01-26T09:47:43.023Z,1.76
2017-01-26T09:48:53.748Z,1.82
2017-01-26T09:50:04.493Z,1.76
2017-01-26T09:51:15.235Z,1.81
2017-01-26T09:52:25.942Z,1.75
2017-01-26T09:53:36.685Z,1.85
2017-01-26T09:54:47.395Z,1.78
2017-01-26T09:55:58.525Z,1.79
2017-01-26T09:57:09.503Z,1.78
2017-01-26T09:58:20.232Z,1.79
2017-01-26T09:59:30.968Z,1.75
2017-01-26T10:00:41.704Z,1.78
2017-01-26T10:01:52.457Z,1.78
2017-01-26T10:03:03.196Z,1.82
2017-01-26T10:04:13.924Z,1.71
2017-01-26T10:05:24.659Z,1.78
2017-01-26T10:06:35.408Z,1.75
2017-01-26T10:07:46.134Z,1.88
2017-01-26T10:08:56.885Z,1.92
2017-01-26T10:10:07.601Z,1.88
2017-01-26T10:11:18.322Z,1.84
2017-01-26T10:12:29.024Z,1.82
2017-01-26T10:13:39.731Z,1.92
2017-01-26T10:14:50.452Z,1.92
2017-01-26T10:16:01.152Z,1.92
2017-01-26T10:17:12.275Z,1.78
2017-01-26T10:18:23.425Z,2
2017-01-26T10:19:34.152Z,1.93
2017-01-26T10:20:44.864Z,1.89
2017-01-26T10:21:55.585Z,1.95
2017-01-26T10:23:06.309Z,1.89
2017-01-26T10:24:17.019Z,1.92
2017-01-26T10:25:27.743Z,2.05
2017-01-26T10:26:38.480Z,1.88
2017-01-26T10:27:49.244Z,2.03
2017-01-26T10:28:59.983Z,2.04
2017-01-26T10:30:10.681Z,1.92
2017-01-26T10:31:21.408Z,2.05
2017-01-26T10:32:32.128Z,1.95
2017-01-26T10:33:42.873Z,2.04
2017-01-26T10:34:53.615Z,2.14
2017-01-26T10:36:04.357Z,2.07
2017-01-26T10:37:15.062Z,2.07
2017-01-26T10:38:26.449Z,2.1
2017-01-26T10:39:37.174Z,2.1
2017-01-26T10:40:47.891Z,2.21
2017-01-26T10:41:58.585Z,2.12
2017-01-26T10:43:09.337Z,2.21
2017-01-26T10:44:20.079Z,2.16
2017-01-26T10:45:30.798Z,2.16
2017-01-26T10:46:41.521Z,2.28
2017-01-26T10:47:52.249Z,2.19
2017-01-26T10:49:02.973Z,2.28
2017-01-26T10:50:13.708Z,2.34
2017-01-26T10:51:24.450Z,2.39
2017-01-26T10:52:35.178Z,2.43
2017-01-26T10:53:45.900Z,2.44
2017-01-26T10:54:56.618Z,2.54
2017-01-26T10:56:07.342Z,2.52
2017-01-26T10:57:18.083Z,2.61
2017-01-26T10:58:28.831Z,2.69
2017-01-26T10:59:39.572Z,2.62
2017-01-26T11:00:50.297Z,2.73
2017-01-26T11:02:00.990Z,2.91
2017-01-26T11:03:11.702Z,2.93
2017-01-26T11:04:22.420Z,2.93
2017-01-26T11:05:33.136Z,2.95
2017-01-26T11:06:43.853Z,2.83
2017-01-26T11:07:54.598Z,3
2017-01-26T11:09:05.317Z,2.95
2017-01-26T11:10:16.401Z,3.01
2017-01-26T11:11:27.121Z,3.09
2017-01-26T11:12:37.878Z,3.15
2017-01-26T11:13:48.605Z,3.15
2017-01-26T11:14:59.331Z,3.22
2017-01-26T11:16:10.071Z,3.19
2017-01-26T11:17:20.794Z,3.3
2017-01-26T11:18:31.520Z,3.36
2017-01-26T11:19:42.213Z,3.37
2017-01-26T11:20:52.929Z,3.46
2017-01-26T11:22:03.675Z,3.48
2017-01-26T11:23:14.429Z,3.61
2017-01-26T11:24:25.167Z,3.77
2017-01-26T11:25:35.888Z,3.81
2017-01-26T11:26:47.034Z,3.82
2017-01-26T11:27:57.763Z,3.86
2017-01-26T11:29:08.498Z,3.91
2017-01-26T11:30:19.219Z,3.86
2017-01-26T11:31:29.967Z,3.84
2017-01-26T11:32:40.721Z,3.86
2017-01-26T11:33:51.457Z,3.91
2017-01-26T11:35:02.208Z,3.91
2017-01-26T11:36:12.926Z,3.89
2017-01-26T11:37:24.059Z,4.02
2017-01-26T11:38:48.280Z,4.06
2017-01-26T11:39:59.011Z,4.12
2017-01-26T11:41:09.743Z,4.14
2017-01-26T11:42:20.482Z,4.14
2017-01-26T11:43:31.236Z,4.24
2017-01-26T11:44:41.957Z,4.2
2017-01-26T11:45:52.666Z,4.24
2017-01-26T11:47:03.769Z,4.31
2017-01-26T11:48:14.497Z,4.3
2017-01-26T11:49:25.243Z,4.43
2017-01-26T11:50:35.984Z,4.42
2017-01-26T11:51:46.706Z,4.52
2017-01-26T11:52:57.431Z,4.49
2017-01-26T11:54:08.164Z,4.53
2017-01-26T11:55:18.895Z,4.56
2017-01-26T11:56:29.612Z,4.56
2017-01-26T11:57:40.355Z,4.63
2017-01-26T11:58:51.125Z,4.6
2017-01-26T12:00:01.856Z,4.61
2017-01-26T12:01:12.589Z,4.57
2017-01-26T12:02:23.325Z,4.68
2017-01-26T12:03:34.442Z,4.57
2017-01-26T12:04:45.181Z,4.63
2017-01-26T12:05:55.906Z,4.66
2017-01-26T12:07:06.627Z,4.61
2017-01-26T12:08:17.369Z,4.74
2017-01-26T12:09:28.073Z,4.63
2017-01-26T12:10:38.808Z,4.6
2017-01-26T12:11:49.530Z,4.66
2017-01-26T12:13:00.279Z,4.66
2017-01-26T12:14:11.022Z,4.63
2017-01-26T12:15:21.727Z,4.58
2017-01-26T12:16:32.471Z,4.61
2017-01-26T12:17:43.467Z,4.63
2017-01-26T12:18:54.187Z,4.56
2017-01-26T12:20:04.901Z,4.63
2017-01-26T12:21:15.622Z,4.67
2017-01-26T12:22:26.368Z,4.57
2017-01-26T12:23:37.073Z,4.6
2017-01-26T12:24:47.799Z,4.58
2017-01-26T12:25:58.532Z,4.58
2017-01-26T12:27:09.259Z,4.61
2017-01-26T12:28:19.997Z,4.66
2017-01-26T12:29:30.725Z,4.6
2017-01-26T12:30:41.447Z,4.58
2017-01-26T12:31:52.172Z,4.5
2017-01-26T12:33:02.914Z,4.57
2017-01-26T12:34:14.010Z,4.48
2017-01-26T12:35:24.753Z,4.5
2017-01-26T12:36:35.880Z,4.56
2017-01-26T12:37:46.598Z,4.56
2017-01-26T12:38:57.339Z,4.64
2017-01-26T12:40:08.068Z,4.61
2017-01-26T12:41:18.784Z,4.6
2017-01-26T12:42:29.511Z,4.7
2017-01-26T12:43:40.252Z,4.6
2017-01-26T12:44:50.965Z,4.58
2017-01-26T12:46:01.723Z,4.68
2017-01-26T12:47:12.444Z,4.63
2017-01-26T12:48:23.179Z,4.58
2017-01-26T12:49:33.899Z,4.49
2017-01-26T12:50:44.603Z,4.42
2017-01-26T12:51:55.343Z,4.36
2017-01-26T12:53:06.438Z,4.32
2017-01-26T12:54:17.191Z,4.34
2017-01-26T12:55:27.911Z,4.25
2017-01-26T12:56:38.625Z,4.27
2017-01-26T12:57:49.355Z,4.27
2017-01-26T12:59:00.103Z,4.31
2017-01-26T13:00:10.839Z,4.31
2017-01-26T13:01:21.567Z,4.36
2017-01-26T13:02:32.305Z,4.3
2017-01-26T13:03:43.037Z,4.22
2017-01-26T13:04:53.773Z,4.24
2017-01-26T13:06:04.906Z,4.25
2017-01-26T13:07:15.620Z,4.2
2017-01-26T13:08:26.341Z,4.25
2017-01-26T13:09:37.087Z,4.18
2017-01-26T13:10:47.808Z,4.14
2017-01-26T13:11:58.534Z,4.22
2017-01-26T13:13:09.267Z,4.13
2017-01-26T13:14:19.992Z,4.06
2017-01-26T13:15:30.745Z,4.2
2017-01-26T13:16:41.483Z,4.13
2017-01-26T13:17:52.185Z,4.03
2017-01-26T13:19:02.925Z,4.14
2017-01-26T13:20:13.675Z,4.07
2017-01-26T13:21:24.424Z,3.99
2017-01-26T13:22:35.520Z,4.03
2017-01-26T13:23:46.257Z,3.96
2017-01-26T13:24:56.986Z,4.06
2017-01-26T13:26:07.725Z,3.91
2017-01-26T13:27:19.225Z,3.85
2017-01-26T13:28:31.867Z,3.86
2017-01-26T13:29:44.498Z,3.95
2017-01-26T13:30:57.514Z,3.81
2017-01-26T13:32:09.402Z,3.82
2017-01-26T13:33:21.664Z,3.71
2017-01-26T13:34:34.305Z,3.7
2017-01-26T13:35:46.968Z,3.68
2017-01-26T13:36:59.223Z,3.61
2017-01-26T13:38:11.910Z,3.49
2017-01-26T13:39:24.553Z,3.53
2017-01-26T13:40:37.566Z,3.4
2017-01-26T13:41:50.201Z,3.41
2017-01-26T13:43:02.851Z,3.37
2017-01-26T13:44:15.526Z,3.36
2017-01-26T13:45:28.188Z,3.33
2017-01-26T13:46:41.209Z,3.22
2017-01-26T13:47:53.830Z,3.27
2017-01-26T13:49:06.081Z,3.3
2017-01-26T13:50:19.127Z,3.29
2017-01-26T13:51:31.397Z,3.29
2017-01-26T13:52:43.667Z,3.21
2017-01-26T13:53:56.719Z,3.24
2017-01-26T13:55:09.736Z,3.22
2017-01-26T13:56:22.379Z,3.24
2017-01-26T13:57:35.415Z,3.13
2017-01-26T13:58:48.048Z,3.13
2017-01-26T14:00:01.074Z,3.12
2017-01-26T14:01:13.716Z,3.09
2017-01-26T14:02:26.749Z,3.09
2017-01-26T14:03:39.382Z,3.19
2017-01-26T14:04:52.050Z,3.09
2017-01-26T14:06:04.694Z,3.05
2017-01-26T14:07:17.342Z,3.09
2017-01-26T14:08:30.381Z,3.08
2017-01-26T14:09:43.031Z,3
2017-01-26T14:10:56.077Z,3.03
2017-01-26T14:12:08.316Z,3.05
2017-01-26T14:13:20.946Z,2.94
2017-01-26T14:14:33.623Z,3.01
2017-01-26T14:15:46.660Z,2.88
2017-01-26T14:16:59.287Z,2.91
2017-01-26T14:18:11.562Z,2.8
2017-01-26T14:19:24.203Z,2.94
2017-01-26T14:20:36.850Z,2.95
2017-01-26T14:21:49.470Z,2.94
2017-01-26T14:23:02.488Z,2.95
2017-01-26T14:24:15.533Z,2.87
2017-01-26T14:25:28.154Z,2.97
2017-01-26T14:26:41.177Z,2.93
2017-01-26T14:27:54.199Z,2.94
2017-01-26T14:29:06.847Z,2.83
2017-01-26T14:30:19.504Z,2.82
2017-01-26T14:31:32.159Z,2.76
2017-01-26T14:32:45.185Z,2.72
2017-01-26T14:33:57.834Z,2.75
2017-01-26T14:35:10.489Z,2.77
2017-01-26T14:36:22.769Z,2.75
2017-01-26T14:37:35.812Z,2.73
2017-01-26T14:38:48.810Z,2.69
2017-01-26T14:40:01.807Z,2.73
2017-01-26T14:41:14.478Z,2.64
2017-01-26T14:42:27.125Z,2.65
2017-01-26T14:43:39.776Z,2.59
2017-01-26T14:44:52.810Z,2.61
2017-01-26T14:46:05.486Z,2.52
2017-01-26T14:47:18.134Z,2.68
2017-01-26T14:48:30.785Z,2.52
2017-01-26T14:49:42.990Z,2.46
2017-01-26T14:50:55.672Z,2.5
2017-01-26T14:52:07.935Z,2.41
2017-01-26T14:53:20.183Z,2.41
2017-01-26T14:54:33.212Z,2.46
2017-01-26T14:55:46.279Z,2.37
2017-01-26T14:56:59.325Z,2.39
2017-01-26T14:58:11.567Z,2.4
2017-01-26T14:59:24.219Z,2.36
2017-01-26T15:00:37.259Z,2.33
2017-01-26T15:01:49.889Z,2.23
2017-01-26T15:03:02.523Z,2.14
2017-01-26T15:04:15.551Z,2.15
2017-01-26T15:05:28.172Z,2.14
2017-01-26T15:06:41.246Z,2.05
2017-01-26T15:07:54.265Z,1.98
2017-01-26T15:09:07.314Z,2.04
2017-01-26T15:10:20.361Z,1.98
2017-01-26T15:11:33.410Z,1.89
2017-01-26T15:12:46.456Z,1.92
2017-01-26T15:13:59.496Z,1.88
2017-01-26T15:15:12.515Z,1.78
2017-01-26T15:16:25.153Z,1.78
2017-01-26T15:17:37.783Z,1.71
2017-01-26T15:18:50.464Z,1.74
2017-01-26T15:20:03.500Z,1.6
2017-01-26T15:21:15.789Z,1.49
2017-01-26T15:22:28.445Z,1.52
2017-01-26T15:23:41.490Z,1.43
2017-01-26T15:24:54.534Z,1.39
2017-01-26T15:26:06.798Z,1.4
2017-01-26T15:27:19.445Z,1.25
2017-01-26T15:28:32.499Z,1.25
2017-01-26T15:29:45.541Z,1.22
2017-01-26T15:30:57.816Z,1.18
2017-01-26T15:32:10.104Z,1.25
2017-01-26T15:33:22.009Z,1.13
2017-01-26T15:34:35.024Z,1.04
2017-01-26T15:35:48.025Z,1.06
2017-01-26T15:37:01.071Z,1.06
2017-01-26T15:38:14.112Z,1
2017-01-26T15:39:27.137Z,1.06
2017-01-26T15:40:40.179Z,1.06
2017-01-26T15:41:53.193Z,0.96
2017-01-26T15:43:06.197Z,0.89
2017-01-26T15:44:18.071Z,0.85
2017-01-26T15:45:30.735Z,0.68
2017-01-26T15:46:43.361Z,0.81
2017-01-26T15:47:56.005Z,0.74
2017-01-26T15:49:08.656Z,0.73